createdAt,value
2022-08-09T00:01:55.530Z,78.91
2022-08-09T00:04:34.668Z,79.91
2022-08-09T00:07:03.785Z,79.56
2022-08-09T00:09:38.306Z,80.05
2022-08-09T00:12:07.031Z,79.03
2022-08-09T00:14:37.927Z,78.58
2022-08-09T00:17:06.622Z,81.04
2022-08-09T00:19:35.985Z,81.28
2022-08-09T00:22:04.476Z,81.39
2022-08-09T00:24:32.442Z,81.82
2022-08-09T00:27:00.258Z,82.30
2022-08-09T00:29:39.260Z,83.07
2022-08-09T00:32:25.431Z,83.44
2022-08-09T00:34:56.558Z,82.88
2022-08-09T00:37:26.380Z,84.15
2022-08-09T00:40:13.518Z,83.70
2022-08-09T00:44:16.634Z,83.67
2022-08-09T00:45:34.869Z,83.99
2022-08-09T00:48:03.265Z,84.25
2022-08-09T00:50:32.586Z,83.63
2022-08-09T00:53:00.916Z,83.70
2022-08-09T00:56:05.609Z,83.78
2022-08-09T00:58:27.703Z,84.18
2022-08-09T01:00:59.047Z,85.92
2022-08-09T01:03:36.422Z,83.00
2022-08-09T01:06:17.622Z,83.70
2022-08-09T01:08:51.737Z,84.11
2022-08-09T01:11:25.655Z,83.13
2022-08-09T01:13:59.979Z,78.78
2022-08-09T01:16:35.066Z,80.14
2022-08-09T01:19:16.890Z,80.89
2022-08-09T01:22:16.622Z,79.25
2022-08-09T01:24:52.130Z,83.58
2022-08-09T01:27:23.767Z,82.58
2022-08-09T01:29:56.801Z,81.83
2022-08-09T01:32:37.775Z,84.95
2022-08-09T01:35:28.281Z,81.43
2022-08-09T01:38:07.747Z,82.20
2022-08-09T01:40:39.929Z,85.14
2022-08-09T01:43:09.257Z,84.39
2022-08-09T01:45:44.648Z,86.32
2022-08-09T01:48:15.801Z,83.49
2022-08-09T01:50:48.314Z,83.10
2022-08-09T01:53:20.117Z,80.83
2022-08-09T01:55:49.935Z,81.43
2022-08-09T01:58:24.166Z,86.38
2022-08-09T02:00:53.100Z,85.72
2022-08-09T02:03:21.457Z,88.50
2022-08-09T02:06:06.273Z,88.82
2022-08-09T02:08:57.103Z,84.13
2022-08-09T02:11:42.701Z,82.17
2022-08-09T02:14:15.188Z,83.60
2022-08-09T02:16:59.615Z,87.24
2022-08-09T02:19:43.217Z,87.78
2022-08-09T02:22:16.760Z,88.17
2022-08-09T02:24:51.924Z,88.52
2022-08-09T02:27:21.603Z,90.68
2022-08-09T02:30:12.308Z,90.32
2022-08-09T02:32:45.971Z,91.23
2022-08-09T02:35:26.091Z,89.76
2022-08-09T02:38:08.480Z,91.35
2022-08-09T02:40:36.835Z,92.98
2022-08-09T02:43:05.961Z,92.27
2022-08-09T02:45:36.774Z,93.68
2022-08-09T02:48:19.605Z,93.58
2022-08-09T02:51:01.603Z,94.00
2022-08-09T02:53:37.643Z,93.62
2022-08-09T02:56:07.584Z,93.25
2022-08-09T02:58:37.957Z,93.71
2022-08-09T03:01:11.072Z,93.56
2022-08-09T03:04:17.873Z,92.83
2022-08-09T03:06:31.737Z,95.81
2022-08-09T03:09:00.928Z,93.43
2022-08-09T03:12:04.484Z,94.34
2022-08-09T03:14:17.889Z,94.35
2022-08-09T03:16:48.486Z,96.18
2022-08-09T03:19:58.277Z,96.47
2022-08-09T03:22:12.521Z,97.24
2022-08-09T03:25:05.819Z,97.17
2022-08-09T03:27:45.202Z,97.35
2022-08-09T03:30:14.154Z,97.18
2022-08-09T03:33:00.831Z,97.12
2022-08-09T03:36:11.478Z,97.25
2022-08-09T03:38:28.975Z,98.71
2022-08-09T03:40:58.405Z,98.21
2022-08-09T03:43:31.985Z,99.24
2022-08-09T03:46:04.569Z,99.51
2022-08-09T03:48:52.210Z,99.41
2022-08-09T03:51:55.542Z,97.94
2022-08-09T03:54:10.957Z,98.95
2022-08-09T03:56:41.378Z,99.08
2022-08-09T03:59:13.511Z,99.60
2022-08-09T04:01:45.600Z,99.66
2022-08-09T04:04:16.076Z,99.07
2022-08-09T04:06:48.886Z,97.44
2022-08-09T04:09:42.136Z,98.52
2022-08-09T04:12:30.748Z,100.00
2022-08-09T04:15:17.303Z,100.00
2022-08-09T04:17:55.887Z,100.00
2022-08-09T04:20:26.890Z,100.00
2022-08-09T04:22:56.626Z,100.00
2022-08-09T04:25:27.029Z,100.00
2022-08-09T04:27:59.828Z,100.00
2022-08-09T04:30:31.865Z,100.00
2022-08-09T04:33:01.938Z,99.37
2022-08-09T04:35:32.900Z,98.58
2022-08-09T04:38:03.748Z,100.00
2022-08-09T04:40:45.711Z,100.00
2022-08-09T04:43:13.830Z,100.00
2022-08-09T04:45:53.053Z,100.00
2022-08-09T04:48:21.820Z,100.00
2022-08-09T04:50:52.999Z,100.00
2022-08-09T04:53:20.627Z,100.00
2022-08-09T04:55:58.993Z,100.00
2022-08-09T04:58:27.622Z,100.00
2022-08-09T05:00:55.708Z,100.00
2022-08-09T05:03:40.390Z,100.00
2022-08-09T05:06:21.987Z,100.00
2022-08-09T05:09:00.688Z,100.00
2022-08-09T05:11:35.543Z,100.00
2022-08-09T05:14:05.757Z,100.00
2022-08-09T05:16:58.579Z,100.00
2022-08-09T05:19:25.558Z,100.00
2022-08-09T05:21:56.472Z,100.00
2022-08-09T05:24:24.633Z,94.01
2022-08-09T05:26:52.388Z,100.00
2022-08-09T05:29:21.885Z,100.00
2022-08-09T05:31:57.046Z,100.00
2022-08-09T05:34:31.383Z,100.00
2022-08-09T05:37:06.300Z,100.00
2022-08-09T05:39:35.646Z,100.00
2022-08-09T05:42:06.085Z,94.21
2022-08-09T05:44:34.949Z,100.00
2022-08-09T05:47:05.546Z,100.00
2022-08-09T05:49:33.946Z,100.00
2022-08-09T05:52:24.876Z,100.00
2022-08-09T05:54:52.728Z,100.00
2022-08-09T05:57:25.039Z,100.00
2022-08-09T06:00:13.153Z,100.00
2022-08-09T06:02:42.411Z,100.00
2022-08-09T06:05:14.510Z,100.00
2022-08-09T06:08:05.036Z,100.00
2022-08-09T06:10:41.723Z,100.00
2022-08-09T06:13:19.050Z,100.00
2022-08-09T06:15:51.523Z,100.00
2022-08-09T06:18:23.882Z,100.00
2022-08-09T06:20:54.506Z,100.00
2022-08-09T06:23:58.571Z,96.56
2022-08-09T06:26:20.269Z,95.69
2022-08-09T06:28:49.442Z,99.52
2022-08-09T06:31:17.035Z,95.55
2022-08-09T06:33:58.459Z,95.80
2022-08-09T06:36:27.365Z,96.67
2022-08-09T06:38:59.034Z,95.73
2022-08-09T06:42:01.234Z,78.69
2022-08-09T06:44:18.524Z,82.85
2022-08-09T06:46:50.411Z,82.33
2022-08-09T06:49:44.636Z,84.05
2022-08-09T06:52:12.116Z,82.23
2022-08-09T06:54:44.807Z,76.80
2022-08-09T06:57:13.364Z,72.86
2022-08-09T07:00:54.116Z,69.75
2022-08-09T07:02:31.094Z,68.77
2022-08-09T07:04:59.963Z,69.92
2022-08-09T07:08:00.720Z,68.38
2022-08-09T07:10:29.741Z,84.72
2022-08-09T07:13:00.179Z,86.85
2022-08-09T07:16:34.939Z,76.45
2022-08-09T07:18:33.836Z,94.25
2022-08-09T07:21:01.427Z,100.00
2022-08-09T07:23:29.799Z,95.67
2022-08-09T07:26:05.324Z,65.46
2022-08-09T07:28:34.886Z,62.85
2022-08-09T07:31:04.671Z,64.53
2022-08-09T07:33:52.585Z,68.13
2022-08-09T07:36:19.999Z,87.73
2022-08-09T07:38:56.765Z,62.60
2022-08-09T07:41:32.831Z,62.23
2022-08-09T07:44:06.390Z,65.17
2022-08-09T07:46:34.662Z,67.00
2022-08-09T07:49:05.567Z,58.08
2022-08-09T07:52:05.214Z,56.01
2022-08-09T07:54:27.907Z,71.84
2022-08-09T07:56:59.258Z,79.14
2022-08-09T07:59:34.361Z,67.23
2022-08-09T08:02:19.214Z,71.86
2022-08-09T08:04:48.979Z,59.35
2022-08-09T08:08:44.079Z,66.72
2022-08-09T08:10:10.366Z,66.13
2022-08-09T08:12:45.375Z,53.52
2022-08-09T08:15:16.796Z,66.38
2022-08-09T08:17:53.064Z,60.11
2022-08-09T08:20:29.355Z,52.30
2022-08-09T08:23:01.783Z,61.11
2022-08-09T08:25:44.442Z,56.71
2022-08-09T08:28:18.293Z,66.14
2022-08-09T08:31:06.128Z,53.33
2022-08-09T08:33:52.964Z,48.95
2022-08-09T08:36:28.985Z,63.76
2022-08-09T08:38:58.570Z,61.62
2022-08-09T08:41:51.280Z,58.45
2022-08-09T08:44:23.143Z,57.52
2022-08-09T08:47:02.730Z,56.65
2022-08-09T08:49:47.410Z,51.51
2022-08-09T08:52:50.441Z,58.40
2022-08-09T08:55:05.884Z,52.43
2022-08-09T08:57:35.396Z,51.95
2022-08-09T09:00:08.189Z,47.39
2022-08-09T09:02:46.909Z,48.74
2022-08-09T09:05:57.790Z,47.50
2022-08-09T09:08:30.666Z,59.86
2022-08-09T09:11:02.211Z,43.65
2022-08-09T09:13:41.772Z,54.47
2022-08-09T09:16:29.875Z,48.92
2022-08-09T09:19:22.668Z,50.02
2022-08-09T09:22:16.012Z,51.21
2022-08-09T09:24:45.462Z,43.51
2022-08-09T09:28:04.395Z,49.86
2022-08-09T09:30:19.268Z,43.12
2022-08-09T09:33:15.526Z,48.53
2022-08-09T09:36:01.001Z,49.51
2022-08-09T09:38:41.880Z,50.78
2022-08-09T09:41:10.799Z,52.23
2022-08-09T09:43:41.238Z,50.01
2022-08-09T09:46:50.369Z,50.25
2022-08-09T09:49:31.652Z,48.49
2022-08-09T09:52:35.811Z,54.89
2022-08-09T09:55:02.647Z,45.46
2022-08-09T09:58:04.059Z,46.02
2022-08-09T10:00:54.229Z,47.49
2022-08-09T10:03:43.399Z,45.45
2022-08-09T10:06:13.406Z,47.66
2022-08-09T10:08:54.336Z,45.13
2022-08-09T10:12:00.044Z,47.93
2022-08-09T10:14:30.700Z,46.48
2022-08-09T10:17:17.650Z,50.23
2022-08-09T10:19:53.088Z,47.05
2022-08-09T10:22:33.346Z,45.47
2022-08-09T10:25:03.549Z,43.37
2022-08-09T10:27:56.002Z,45.81
2022-08-09T10:34:05.301Z,52.54
2022-08-09T10:36:02.254Z,52.28
2022-08-09T10:38:33.985Z,53.53
2022-08-09T10:41:20.743Z,39.36
2022-08-09T10:43:59.743Z,50.83
2022-08-09T10:46:55.766Z,48.30
2022-08-09T10:49:50.899Z,44.04
2022-08-09T10:52:54.442Z,47.35
2022-08-09T10:55:25.786Z,47.32
2022-08-09T10:57:55.720Z,45.35
2022-08-09T11:00:37.624Z,34.86
2022-08-09T11:03:49.620Z,44.62
2022-08-09T11:06:20.521Z,45.12
2022-08-09T11:08:53.058Z,41.29
2022-08-09T11:11:23.952Z,41.46
2022-08-09T11:14:28.248Z,43.67
2022-08-09T11:16:56.546Z,42.34
2022-08-09T11:20:11.701Z,46.88
2022-08-09T11:23:02.812Z,39.24
2022-08-09T11:25:47.979Z,38.04
2022-08-09T11:28:38.731Z,33.89
2022-08-09T11:31:50.467Z,36.77
2022-08-09T11:34:36.339Z,42.55
2022-08-09T11:37:07.592Z,42.11
2022-08-09T11:40:01.330Z,36.77
2022-08-09T11:42:50.519Z,42.47
2022-08-09T11:45:21.705Z,34.28
2022-08-09T11:47:50.803Z,44.31
2022-08-09T11:50:55.136Z,42.11
2022-08-09T11:53:58.551Z,41.28
2022-08-09T11:56:41.854Z,40.24
2022-08-09T11:59:30.184Z,36.33
2022-08-09T12:02:18.148Z,41.96
2022-08-09T12:04:54.578Z,45.53
2022-08-09T12:07:28.963Z,44.30
2022-08-09T12:10:31.854Z,39.81
2022-08-09T12:12:58.547Z,39.96
2022-08-09T12:15:49.122Z,45.65
2022-08-09T12:18:29.563Z,36.37
2022-08-09T12:21:00.339Z,42.92
2022-08-09T12:23:47.489Z,38.68
2022-08-09T12:26:25.888Z,42.03
2022-08-09T12:29:12.073Z,39.26
2022-08-09T12:32:02.780Z,39.68
2022-08-09T12:34:37.722Z,40.12
2022-08-09T12:37:09.724Z,38.28
2022-08-09T12:40:01.093Z,41.81
2022-08-09T12:42:30.162Z,45.83
2022-08-09T12:44:59.510Z,39.91
2022-08-09T12:47:28.503Z,46.89
2022-08-09T12:50:24.838Z,42.53
2022-08-09T12:53:09.666Z,47.41
2022-08-09T12:56:11.919Z,39.78
2022-08-09T12:58:28.754Z,54.08
2022-08-09T13:00:57.614Z,44.04
2022-08-09T13:03:53.357Z,42.38
2022-08-09T13:06:34.924Z,45.69
2022-08-09T13:09:07.288Z,41.51
2022-08-09T13:11:39.479Z,45.72
2022-08-09T13:14:41.146Z,40.43
2022-08-09T13:16:58.962Z,40.66
2022-08-09T13:20:08.325Z,50.66
2022-08-09T13:23:01.987Z,43.00
2022-08-09T13:25:13.714Z,46.13
2022-08-09T13:27:54.433Z,46.59
2022-08-09T13:30:50.669Z,48.67
2022-08-09T13:33:17.240Z,48.31
2022-08-09T13:36:39.656Z,49.05
2022-08-09T13:38:56.576Z,46.62
2022-08-09T13:41:58.442Z,48.70
2022-08-09T13:44:17.129Z,45.59
2022-08-09T13:47:29.744Z,40.97
2022-08-09T13:49:37.891Z,46.08
2022-08-09T13:52:09.342Z,48.07
2022-08-09T13:54:42.978Z,46.75
2022-08-09T13:57:36.809Z,42.81
2022-08-09T14:00:10.850Z,48.31
2022-08-09T14:02:42.863Z,42.40
2022-08-09T14:05:56.909Z,50.59
2022-08-09T14:08:17.589Z,46.99
2022-08-09T14:10:52.145Z,41.69
2022-08-09T14:13:28.094Z,40.25
2022-08-09T14:16:10.467Z,46.22
2022-08-09T14:18:39.144Z,47.85
2022-08-09T14:21:17.869Z,48.72
2022-08-09T14:23:55.413Z,47.30
2022-08-09T14:26:32.720Z,43.80
2022-08-09T14:29:03.272Z,39.68
2022-08-09T14:31:50.294Z,41.73
2022-08-09T14:34:30.798Z,46.99
2022-08-09T14:36:59.733Z,40.58
2022-08-09T14:39:45.621Z,50.89
2022-08-09T14:42:28.746Z,52.66
2022-08-09T14:45:01.513Z,45.41
2022-08-09T14:47:56.783Z,44.28
2022-08-09T14:50:25.557Z,43.92
2022-08-09T14:52:54.664Z,49.58
2022-08-09T14:55:22.421Z,51.28
2022-08-09T14:57:51.368Z,49.84
2022-08-09T15:00:19.450Z,42.52
2022-08-09T15:02:47.170Z,42.06
2022-08-09T15:05:16.297Z,42.60
2022-08-09T15:07:45.413Z,47.33
2022-08-09T15:10:24.966Z,41.92
2022-08-09T15:12:54.972Z,46.13
2022-08-09T15:15:23.662Z,49.68
2022-08-09T15:17:53.277Z,48.98
2022-08-09T15:22:00.929Z,49.59
2022-08-09T15:24:03.178Z,49.56
2022-08-09T15:25:58.678Z,42.39
2022-08-09T15:28:33.067Z,44.76
2022-08-09T15:31:11.685Z,49.60
2022-08-09T15:34:15.345Z,48.06
2022-08-09T15:36:31.465Z,43.29
2022-08-09T15:39:00.175Z,48.81
2022-08-09T15:41:31.708Z,46.60
2022-08-09T15:44:02.317Z,39.12
2022-08-09T15:46:33.504Z,41.97
2022-08-09T15:49:20.858Z,41.05
2022-08-09T15:52:05.154Z,43.60
2022-08-09T15:54:51.401Z,43.00
2022-08-09T15:57:34.315Z,47.55
2022-08-09T16:00:08.336Z,48.67
2022-08-09T16:05:06.807Z,47.69
2022-08-09T16:07:39.464Z,43.04
2022-08-09T16:10:38.689Z,43.90
2022-08-09T16:13:02.170Z,43.47
2022-08-09T16:16:04.591Z,43.51
2022-08-09T16:18:19.989Z,48.50
2022-08-09T16:20:48.328Z,45.06
2022-08-09T16:23:19.853Z,47.65
2022-08-09T16:25:49.707Z,43.59
2022-08-09T16:28:17.600Z,51.45
2022-08-09T16:30:59.236Z,47.61
2022-08-09T16:33:27.575Z,41.27
2022-08-09T16:36:04.480Z,41.94
2022-08-09T16:38:36.792Z,49.59
2022-08-09T16:41:06.151Z,54.98
2022-08-09T16:43:40.499Z,57.58
2022-08-09T16:46:10.905Z,54.46
2022-08-09T16:48:53.240Z,49.29
2022-08-09T16:51:27.814Z,51.50
2022-08-09T16:54:24.816Z,51.62
2022-08-09T16:56:49.287Z,49.18
2022-08-09T16:59:17.979Z,46.18
2022-08-09T17:01:51.293Z,43.21
2022-08-09T17:04:28.712Z,42.84
2022-08-09T17:08:41.027Z,44.46
2022-08-09T17:09:47.089Z,48.35
2022-08-09T17:12:16.287Z,48.47
2022-08-09T17:14:47.590Z,40.04
2022-08-09T17:17:27.463Z,46.00
2022-08-09T17:20:29.932Z,54.25
2022-08-09T17:22:51.880Z,48.78
2022-08-09T17:25:20.080Z,53.32
2022-08-09T17:27:54.394Z,50.08
2022-08-09T17:30:25.898Z,47.51
2022-08-09T17:33:00.740Z,49.40
2022-08-09T17:35:34.718Z,48.04
2022-08-09T17:38:14.380Z,52.27
2022-08-09T17:40:50.222Z,49.82
2022-08-09T17:43:33.976Z,50.60
2022-08-09T17:46:06.822Z,54.50
2022-08-09T17:48:38.557Z,55.16
2022-08-09T17:51:09.774Z,57.16
2022-08-09T17:53:51.531Z,50.07
2022-08-09T17:56:20.309Z,57.94
2022-08-09T17:58:48.202Z,51.33
2022-08-09T18:01:22.657Z,55.81
2022-08-09T18:03:54.542Z,56.39
2022-08-09T18:06:32.286Z,52.55
2022-08-09T18:09:03.362Z,55.14
2022-08-09T18:11:46.987Z,52.04
2022-08-09T18:14:20.317Z,49.73
2022-08-09T18:16:49.174Z,57.41
2022-08-09T18:20:56.209Z,51.81
2022-08-09T18:22:12.963Z,55.51
2022-08-09T18:24:41.580Z,65.66
2022-08-09T18:27:09.895Z,61.27
2022-08-09T18:30:37.882Z,59.57
2022-08-09T18:32:29.468Z,51.05
2022-08-09T18:34:58.683Z,55.81
2022-08-09T18:37:47.641Z,55.09
2022-08-09T18:40:14.695Z,58.57
2022-08-09T18:42:46.772Z,51.00
2022-08-09T18:45:21.640Z,49.47
2022-08-09T18:48:02.291Z,59.33
2022-08-09T18:50:33.950Z,62.20
2022-08-09T18:53:01.656Z,51.06
2022-08-09T18:55:45.537Z,49.86
2022-08-09T18:58:19.954Z,54.96
2022-08-09T19:01:00.584Z,52.69
2022-08-09T19:03:28.795Z,60.59
2022-08-09T19:06:03.335Z,100.00
2022-08-09T19:08:32.579Z,100.00
2022-08-09T19:11:00.239Z,100.00
2022-08-09T19:13:38.835Z,100.00
2022-08-09T19:16:20.901Z,100.00
2022-08-09T19:18:48.941Z,100.00
2022-08-09T19:21:21.706Z,100.00
2022-08-09T19:24:32.219Z,100.00
2022-08-09T19:26:55.568Z,100.00
2022-08-09T19:29:23.248Z,100.00
2022-08-09T19:31:52.395Z,100.00
2022-08-09T19:34:27.745Z,100.00
2022-08-09T19:36:57.870Z,93.14
2022-08-09T19:39:42.947Z,100.00
2022-08-09T19:42:19.488Z,99.43
2022-08-09T19:44:50.774Z,88.50
2022-08-09T19:47:22.993Z,86.74
2022-08-09T19:50:06.530Z,100.00
2022-08-09T19:52:49.691Z,86.26
2022-08-09T19:55:30.430Z,91.38
2022-08-09T19:57:58.575Z,78.65
2022-08-09T20:00:26.265Z,87.63
2022-08-09T20:04:07.637Z,79.29
2022-08-09T20:05:46.660Z,77.31
2022-08-09T20:08:33.294Z,97.62
2022-08-09T20:11:04.098Z,88.81
2022-08-09T20:13:37.193Z,77.98
2022-08-09T20:16:36.616Z,74.58
2022-08-09T20:19:42.298Z,73.84
2022-08-09T20:21:56.473Z,83.13
2022-08-09T20:24:32.095Z,72.33
2022-08-09T20:27:02.474Z,70.60
2022-08-09T20:29:37.540Z,69.14
2022-08-09T20:32:29.771Z,75.05
2022-08-09T20:34:54.439Z,71.74
2022-08-09T20:37:22.717Z,73.52
2022-08-09T20:40:15.622Z,80.04
2022-08-09T20:42:39.417Z,88.56
2022-08-09T20:47:56.351Z,71.78
2022-08-09T20:50:47.687Z,72.02
2022-08-09T20:53:18.759Z,73.36
2022-08-09T20:56:03.100Z,73.56
2022-08-09T20:58:32.644Z,73.04
2022-08-09T21:01:02.060Z,75.16
2022-08-09T21:04:07.992Z,74.08
2022-08-09T21:06:31.568Z,73.72
2022-08-09T21:08:59.283Z,80.67
2022-08-09T21:14:17.943Z,73.63
2022-08-09T21:16:45.971Z,75.84
2022-08-09T21:20:19.303Z,76.29
2022-08-09T21:22:03.680Z,75.76
2022-08-09T21:24:32.530Z,76.21
2022-08-09T21:27:10.480Z,77.92
2022-08-09T21:29:50.417Z,77.50
2022-08-09T21:32:19.571Z,77.23
2022-08-09T21:34:48.352Z,76.32
2022-08-09T21:37:18.349Z,76.92
2022-08-09T21:39:49.669Z,79.38
2022-08-09T21:42:28.510Z,78.44
2022-08-09T21:44:56.410Z,79.44
2022-08-09T21:47:24.435Z,80.83
2022-08-09T21:49:52.124Z,81.12
2022-08-09T21:52:21.500Z,82.99
2022-08-09T21:55:03.427Z,81.81
2022-08-09T21:57:38.971Z,83.97
2022-08-09T22:00:25.451Z,82.94
2022-08-09T22:02:58.831Z,83.93
2022-08-09T22:05:36.921Z,84.20
2022-08-09T22:08:06.845Z,82.13
2022-08-09T22:11:49.645Z,87.27
2022-08-09T22:13:34.260Z,84.55
2022-08-09T22:16:03.985Z,93.07
2022-08-09T22:18:33.049Z,83.30
2022-08-09T22:21:00.966Z,84.29
2022-08-09T22:23:35.304Z,90.96
2022-08-09T22:26:05.282Z,89.35
2022-08-09T22:28:47.247Z,88.49
2022-08-09T22:31:21.604Z,90.32
2022-08-09T22:33:55.669Z,88.25
2022-08-09T22:36:24.785Z,89.36
2022-08-09T22:38:52.364Z,91.00
2022-08-09T22:41:20.584Z,91.15
2022-08-09T22:44:03.591Z,92.91
2022-08-09T22:48:13.138Z,90.83
2022-08-09T22:49:20.433Z,92.44
2022-08-09T22:51:57.063Z,93.68
2022-08-09T22:54:27.293Z,93.25
2022-08-09T22:56:57.181Z,90.39
2022-08-09T22:59:56.206Z,91.87
2022-08-09T23:02:19.957Z,92.78
2022-08-09T23:04:54.014Z,93.46
2022-08-09T23:08:27.462Z,93.04
2022-08-09T23:10:28.898Z,94.18
2022-08-09T23:12:57.074Z,93.93
2022-08-09T23:15:26.514Z,93.20
2022-08-09T23:17:54.337Z,93.46
2022-08-09T23:20:22.361Z,93.15
2022-08-09T23:22:50.346Z,94.52
2022-08-09T23:25:18.000Z,94.68
2022-08-09T23:27:56.631Z,100.00
2022-08-09T23:30:34.764Z,93.10
2022-08-09T23:33:02.409Z,100.00
2022-08-09T23:35:30.009Z,95.51
2022-08-09T23:37:57.589Z,94.78
2022-08-09T23:40:25.189Z,92.74
2022-08-09T23:42:53.074Z,92.02
2022-08-09T23:45:36.579Z,91.33
2022-08-09T23:48:09.081Z,93.47
2022-08-09T23:50:37.147Z,93.09
2022-08-09T23:53:04.882Z,93.38
2022-08-09T23:55:36.084Z,93.08
2022-08-09T23:58:10.418Z,94.04
